createdAt,value
2022-10-18T00:01:32.990Z,19.28
2022-10-18T00:04:00.440Z,19.27
2022-10-18T00:06:27.931Z,19.28
2022-10-18T00:08:55.424Z,19.26
2022-10-18T00:11:22.877Z,19.26
2022-10-18T00:13:51.633Z,19.23
2022-10-18T00:16:19.287Z,19.27
2022-10-18T00:18:47.895Z,19.26
2022-10-18T00:21:16.509Z,19.10
2022-10-18T00:23:44.051Z,19.25
2022-10-18T00:26:12.689Z,19.25
2022-10-18T00:28:40.364Z,18.87
2022-10-18T00:31:16.798Z,19.03
2022-10-18T00:33:44.881Z,19.13
2022-10-18T00:36:12.550Z,18.92
2022-10-18T00:38:40.036Z,19.23
2022-10-18T00:41:09.921Z,19.01
2022-10-18T00:43:52.551Z,19.22
2022-10-18T00:46:21.369Z,19.22
2022-10-18T00:48:48.839Z,19.22
2022-10-18T00:51:16.291Z,19.21
2022-10-18T00:53:43.816Z,19.05
2022-10-18T00:56:11.245Z,19.20
2022-10-18T00:58:38.678Z,19.20
2022-10-18T01:01:06.437Z,19.20
2022-10-18T01:03:35.368Z,19.20
2022-10-18T01:06:02.789Z,19.19
2022-10-18T01:08:37.282Z,19.19
2022-10-18T01:11:11.074Z,18.97
2022-10-18T01:13:44.560Z,19.19
2022-10-18T01:16:16.389Z,19.18
2022-10-18T01:18:49.199Z,19.04
2022-10-18T01:21:21.073Z,19.17
2022-10-18T01:24:42.171Z,19.18
2022-10-18T01:27:22.237Z,19.15
2022-10-18T01:29:52.934Z,19.13
2022-10-18T01:32:22.511Z,19.13
2022-10-18T01:34:50.017Z,19.02
2022-10-18T01:37:17.948Z,18.84
2022-10-18T01:39:46.859Z,19.13
2022-10-18T01:42:15.629Z,19.14
2022-10-18T01:44:43.115Z,19.13
2022-10-18T01:47:10.890Z,19.14
2022-10-18T01:49:39.658Z,19.12
2022-10-18T01:54:41.005Z,19.12
2022-10-18T01:57:10.549Z,19.11
2022-10-18T01:59:42.156Z,19.12
2022-10-18T02:02:14.272Z,19.08
2022-10-18T02:04:46.592Z,18.90
2022-10-18T02:07:17.676Z,19.11
2022-10-18T02:09:50.232Z,19.10
2022-10-18T02:12:17.694Z,19.10
2022-10-18T02:14:45.154Z,19.10
2022-10-18T02:17:12.918Z,19.11
2022-10-18T02:19:42.799Z,18.63
2022-10-18T02:22:11.167Z,19.10
2022-10-18T02:24:39.646Z,18.78
2022-10-18T02:27:07.063Z,19.10
2022-10-18T02:29:34.524Z,19.05
2022-10-18T02:32:05.268Z,19.10
2022-10-18T02:34:34.934Z,19.08
2022-10-18T02:37:03.686Z,19.08
2022-10-18T02:39:32.218Z,18.85
2022-10-18T02:41:59.782Z,19.07
2022-10-18T02:44:27.443Z,19.07
2022-10-18T02:46:54.878Z,19.07
2022-10-18T02:49:22.740Z,18.70
2022-10-18T02:51:50.173Z,18.64
2022-10-18T02:54:18.956Z,19.06
2022-10-18T02:56:46.406Z,19.05
2022-10-18T02:59:13.894Z,19.01
2022-10-18T03:01:41.357Z,19.03
2022-10-18T03:04:08.853Z,19.03
2022-10-18T03:06:36.300Z,19.04
2022-10-18T03:09:03.823Z,18.83
2022-10-18T03:11:32.592Z,19.03
2022-10-18T03:14:00.146Z,19.02
2022-10-18T03:16:27.571Z,19.00
2022-10-18T03:18:55.023Z,19.00
2022-10-18T03:21:22.472Z,19.00
2022-10-18T03:23:49.928Z,19.00
2022-10-18T03:26:17.359Z,18.69
2022-10-18T03:28:46.214Z,19.00
2022-10-18T03:31:13.692Z,18.99
2022-10-18T03:33:41.142Z,18.98
2022-10-18T03:36:08.679Z,18.97
2022-10-18T03:38:36.183Z,18.96
2022-10-18T03:41:03.635Z,18.96
2022-10-18T03:43:31.077Z,18.95
2022-10-18T03:45:59.835Z,18.96
2022-10-18T03:48:27.276Z,18.95
2022-10-18T03:50:54.717Z,18.77
2022-10-18T03:53:22.145Z,18.94
2022-10-18T03:55:51.900Z,18.94
2022-10-18T03:58:19.517Z,18.93
2022-10-18T04:00:46.976Z,18.92
2022-10-18T04:03:15.774Z,18.92
2022-10-18T04:05:43.325Z,18.92
2022-10-18T04:08:10.762Z,18.92
2022-10-18T04:10:38.273Z,18.92
2022-10-18T04:13:05.771Z,18.89
2022-10-18T04:15:33.208Z,18.68
2022-10-18T04:18:00.773Z,18.89
2022-10-18T04:20:29.694Z,18.83
2022-10-18T04:22:57.776Z,18.88
2022-10-18T04:25:25.357Z,18.52
2022-10-18T04:27:52.785Z,18.88
2022-10-18T04:30:20.251Z,18.88
2022-10-18T04:32:47.693Z,18.87
2022-10-18T04:35:15.172Z,18.77
2022-10-18T04:37:43.947Z,18.87
2022-10-18T04:40:12.466Z,18.87
2022-10-18T04:42:39.884Z,18.86
2022-10-18T04:45:08.486Z,18.86
2022-10-18T04:47:35.930Z,18.85
2022-10-18T04:50:03.393Z,18.85
2022-10-18T04:52:30.822Z,18.85
2022-10-18T04:54:59.583Z,18.85
2022-10-18T04:57:27.013Z,18.84
2022-10-18T04:59:54.456Z,18.83
2022-10-18T05:02:21.916Z,18.82
2022-10-18T05:04:49.364Z,18.84
2022-10-18T05:07:17.078Z,18.85
2022-10-18T05:09:44.525Z,18.84
2022-10-18T05:12:13.306Z,18.82
2022-10-18T05:14:40.769Z,18.82
2022-10-18T05:17:08.197Z,18.82
2022-10-18T05:19:35.654Z,18.82
2022-10-18T05:22:03.093Z,18.82
2022-10-18T05:24:30.555Z,18.81
2022-10-18T05:26:58.165Z,18.46
2022-10-18T05:31:55.476Z,18.80
2022-10-18T05:34:24.619Z,18.79
2022-10-18T05:36:52.062Z,18.79
2022-10-18T05:39:19.492Z,18.78
2022-10-18T05:41:46.930Z,18.78
2022-10-18T05:44:14.367Z,18.77
2022-10-18T05:46:43.132Z,18.77
2022-10-18T05:49:10.901Z,18.78
2022-10-18T05:51:38.353Z,18.77
2022-10-18T05:54:05.934Z,18.77
2022-10-18T05:56:33.437Z,18.77
2022-10-18T05:59:00.935Z,18.78
2022-10-18T06:01:28.374Z,18.79
2022-10-18T06:03:57.172Z,18.79
2022-10-18T06:06:24.585Z,18.79
2022-10-18T06:08:52.289Z,18.74
2022-10-18T06:11:20.794Z,18.43
2022-10-18T06:13:48.907Z,18.81
2022-10-18T06:16:17.446Z,18.82
2022-10-18T06:18:47.848Z,18.81
2022-10-18T06:21:16.671Z,18.80
2022-10-18T06:23:44.148Z,18.76
2022-10-18T06:26:12.100Z,18.79
2022-10-18T06:28:39.641Z,18.51
2022-10-18T06:31:07.238Z,18.58
2022-10-18T06:33:35.396Z,18.54
2022-10-18T06:36:03.585Z,18.70
2022-10-18T06:38:32.347Z,18.85
2022-10-18T06:40:59.972Z,18.38
2022-10-18T06:43:27.436Z,18.96
2022-10-18T06:45:55.095Z,19.02
2022-10-18T06:48:22.721Z,19.10
2022-10-18T06:50:57.144Z,19.16
2022-10-18T06:53:24.901Z,19.20
2022-10-18T06:55:53.726Z,19.24
2022-10-18T06:58:21.195Z,19.30
2022-10-18T07:00:48.656Z,19.33
2022-10-18T07:03:16.127Z,19.37
2022-10-18T07:05:43.571Z,19.37
2022-10-18T07:08:11.010Z,19.40
2022-10-18T07:10:38.467Z,19.46
2022-10-18T07:13:30.988Z,19.49
2022-10-18T07:16:02.687Z,19.13
2022-10-18T07:18:30.159Z,19.51
2022-10-18T07:20:57.601Z,19.58
2022-10-18T07:23:25.191Z,19.61
2022-10-18T07:25:52.651Z,19.60
2022-10-18T07:28:21.403Z,19.61
2022-10-18T07:30:48.872Z,19.33
2022-10-18T07:33:16.310Z,19.18
2022-10-18T07:35:43.782Z,18.74
2022-10-18T07:38:11.356Z,19.14
2022-10-18T07:40:38.882Z,19.15
2022-10-18T07:43:09.216Z,19.17
2022-10-18T07:45:40.783Z,19.18
2022-10-18T07:48:08.226Z,19.19
2022-10-18T07:50:35.665Z,19.20
2022-10-18T07:53:03.095Z,19.20
2022-10-18T07:55:30.553Z,18.71
2022-10-18T07:57:57.991Z,19.21
2022-10-18T08:00:25.423Z,19.22
2022-10-18T08:02:57.939Z,19.23
2022-10-18T08:05:25.497Z,19.23
2022-10-18T08:07:52.965Z,19.23
2022-10-18T08:10:20.628Z,19.24
2022-10-18T08:12:48.049Z,19.17
2022-10-18T08:15:15.636Z,19.23
2022-10-18T08:17:44.133Z,19.24
2022-10-18T08:20:29.871Z,19.25
2022-10-18T08:23:00.345Z,19.24
2022-10-18T08:25:28.152Z,19.18
2022-10-18T08:27:55.642Z,19.19
2022-10-18T08:30:23.576Z,19.12
2022-10-18T08:32:50.993Z,19.13
2022-10-18T08:35:19.783Z,19.13
2022-10-18T08:37:48.346Z,19.10
2022-10-18T08:40:15.836Z,19.08
2022-10-18T08:42:52.633Z,18.98
2022-10-18T08:45:37.405Z,18.83
2022-10-18T08:48:07.542Z,18.80
2022-10-18T08:50:38.334Z,18.97
2022-10-18T08:53:08.375Z,19.02
2022-10-18T08:55:37.672Z,19.03
2022-10-18T08:58:05.782Z,19.04
2022-10-18T09:00:35.362Z,19.11
2022-10-18T09:03:11.043Z,19.13
2022-10-18T09:05:42.450Z,18.93
2022-10-18T09:08:39.878Z,19.16
2022-10-18T09:11:11.796Z,19.16
2022-10-18T09:13:58.264Z,19.17
2022-10-18T09:16:29.345Z,19.19
2022-10-18T09:18:58.521Z,18.99
2022-10-18T09:21:31.525Z,19.10
2022-10-18T09:24:02.445Z,19.22
2022-10-18T09:26:29.915Z,18.92
2022-10-18T09:29:03.838Z,19.23
2022-10-18T09:31:37.926Z,19.23
2022-10-18T09:34:06.468Z,19.22
2022-10-18T09:36:37.137Z,19.15
2022-10-18T09:39:05.280Z,19.23
2022-10-18T09:41:35.097Z,18.80
2022-10-18T09:44:03.422Z,19.12
2022-10-18T09:46:33.165Z,19.16
2022-10-18T09:49:02.465Z,19.15
2022-10-18T09:51:31.782Z,19.15
2022-10-18T09:54:04.823Z,19.17
2022-10-18T09:56:39.311Z,19.08
2022-10-18T09:59:16.555Z,19.18
2022-10-18T10:01:43.975Z,19.19
2022-10-18T10:04:11.541Z,18.98
2022-10-18T10:06:39.607Z,19.11
2022-10-18T10:09:15.210Z,19.21
2022-10-18T10:11:45.442Z,19.21
2022-10-18T10:16:51.143Z,18.88
2022-10-18T10:19:28.356Z,19.20
2022-10-18T10:21:58.281Z,19.19
2022-10-18T10:24:31.337Z,19.20
2022-10-18T10:27:06.752Z,19.19
2022-10-18T10:29:56.485Z,19.20
2022-10-18T10:34:58.912Z,19.17
2022-10-18T10:37:34.589Z,19.18
2022-10-18T10:40:20.445Z,18.79
2022-10-18T10:43:08.826Z,19.18
2022-10-18T10:46:00.895Z,18.90
2022-10-18T10:48:32.999Z,19.19
2022-10-18T10:51:02.944Z,19.19
2022-10-18T10:53:36.300Z,19.21
2022-10-18T10:56:05.668Z,18.95
2022-10-18T10:58:36.049Z,19.20
2022-10-18T11:01:22.196Z,19.21
2022-10-18T11:03:50.380Z,18.79
2022-10-18T11:06:34.911Z,19.22
2022-10-18T11:09:02.798Z,19.02
2022-10-18T11:11:32.577Z,19.15
2022-10-18T11:14:21.032Z,19.06
2022-10-18T11:16:52.597Z,19.25
2022-10-18T11:19:30.111Z,19.27
2022-10-18T11:21:57.573Z,18.92
2022-10-18T11:24:25.038Z,19.25
2022-10-18T11:26:54.814Z,19.25
2022-10-18T11:29:39.535Z,19.25
2022-10-18T11:32:11.529Z,19.24
2022-10-18T11:34:46.064Z,19.25
2022-10-18T11:37:39.183Z,19.28
2022-10-18T11:40:26.518Z,18.96
2022-10-18T11:42:58.499Z,19.10
2022-10-18T11:48:06.460Z,19.13
2022-10-18T11:50:36.011Z,18.86
2022-10-18T11:53:08.942Z,19.03
2022-10-18T11:55:42.333Z,19.04
2022-10-18T11:58:19.457Z,18.99
2022-10-18T12:00:48.953Z,19.00
2022-10-18T12:03:28.937Z,19.08
2022-10-18T12:05:57.384Z,19.16
2022-10-18T12:08:27.001Z,18.85
2022-10-18T12:11:05.587Z,18.75
2022-10-18T12:13:37.400Z,19.21
2022-10-18T12:16:05.389Z,19.03
2022-10-18T12:18:32.872Z,19.29
2022-10-18T12:21:00.584Z,19.33
2022-10-18T12:23:35.384Z,19.38
2022-10-18T12:26:03.703Z,19.29
2022-10-18T12:28:38.478Z,19.33
2022-10-18T12:31:07.824Z,19.47
2022-10-18T12:33:36.755Z,19.15
2022-10-18T12:36:09.508Z,19.48
2022-10-18T12:38:37.557Z,19.52
2022-10-18T12:41:05.094Z,19.53
2022-10-18T12:43:36.618Z,19.53
2022-10-18T12:46:10.751Z,19.55
2022-10-18T12:48:42.447Z,19.29
2022-10-18T12:51:14.853Z,19.57
2022-10-18T12:53:44.838Z,19.61
2022-10-18T12:56:36.731Z,19.43
2022-10-18T12:59:49.988Z,19.68
2022-10-18T13:02:36.736Z,19.70
2022-10-18T13:05:41.297Z,19.72
2022-10-18T13:08:39.572Z,19.76
2022-10-18T13:11:25.591Z,19.79
2022-10-18T13:14:01.073Z,19.73
2022-10-18T13:16:33.582Z,19.49
2022-10-18T13:19:10.310Z,19.88
2022-10-18T13:21:44.143Z,19.55
2022-10-18T13:24:36.318Z,19.99
2022-10-18T13:27:35.608Z,20.00
2022-10-18T13:30:12.200Z,20.05
2022-10-18T13:32:45.498Z,20.11
2022-10-18T13:35:50.240Z,20.16
2022-10-18T13:38:29.954Z,20.19
2022-10-18T13:41:01.972Z,20.17
2022-10-18T13:43:58.512Z,20.25
2022-10-18T13:46:26.346Z,20.26
2022-10-18T13:48:53.977Z,20.17
2022-10-18T13:51:36.859Z,20.32
2022-10-18T13:54:10.397Z,20.19
2022-10-18T13:56:51.506Z,20.38
2022-10-18T14:02:50.523Z,20.43
2022-10-18T14:05:48.074Z,20.33
2022-10-18T14:08:18.793Z,20.49
2022-10-18T14:11:01.875Z,20.34
2022-10-18T14:13:34.688Z,20.18
2022-10-18T14:16:06.404Z,20.58
2022-10-18T14:18:35.246Z,20.61
2022-10-18T14:21:21.612Z,20.55
2022-10-18T14:23:50.844Z,20.42
2022-10-18T14:26:19.454Z,20.66
2022-10-18T14:28:59.578Z,20.70
2022-10-18T14:31:27.627Z,20.73
2022-10-18T14:33:58.114Z,20.77
2022-10-18T14:36:26.754Z,20.51
2022-10-18T14:38:56.160Z,20.82
2022-10-18T14:41:24.715Z,20.85
2022-10-18T14:43:52.458Z,20.88
2022-10-18T14:46:23.688Z,20.65
2022-10-18T14:48:55.376Z,20.93
2022-10-18T14:51:22.918Z,20.97
2022-10-18T14:53:50.376Z,21.01
2022-10-18T14:56:24.505Z,20.86
2022-10-18T14:58:52.252Z,21.07
2022-10-18T15:01:20.813Z,21.13
2022-10-18T15:03:48.295Z,21.18
2022-10-18T15:06:17.670Z,21.22
2022-10-18T15:08:46.646Z,21.24
2022-10-18T15:11:14.778Z,21.06
2022-10-18T15:13:47.833Z,21.29
2022-10-18T15:16:16.345Z,21.30
2022-10-18T15:18:43.794Z,21.30
2022-10-18T15:21:20.865Z,21.30
2022-10-18T15:23:48.326Z,21.32
2022-10-18T15:26:21.481Z,21.30
2022-10-18T15:28:52.258Z,20.63
2022-10-18T15:31:27.040Z,21.22
2022-10-18T15:33:55.143Z,21.01
2022-10-18T15:36:27.520Z,21.27
2022-10-18T15:38:54.974Z,21.01
2022-10-18T15:41:39.524Z,21.23
2022-10-18T15:44:19.605Z,21.17
2022-10-18T15:46:47.499Z,21.09
2022-10-18T15:49:48.460Z,21.01
2022-10-18T15:52:38.488Z,20.92
2022-10-18T15:55:47.304Z,20.90
2022-10-18T15:58:18.253Z,20.83
2022-10-18T16:00:47.309Z,20.59
2022-10-18T16:03:14.885Z,20.67
2022-10-18T16:05:42.517Z,20.70
2022-10-18T16:08:19.334Z,20.66
2022-10-18T16:10:46.793Z,20.61
2022-10-18T16:13:14.240Z,20.58
2022-10-18T16:15:41.695Z,20.53
2022-10-18T16:18:13.852Z,20.49
2022-10-18T16:20:41.296Z,20.44
2022-10-18T16:23:15.047Z,20.38
2022-10-18T16:25:42.505Z,20.32
2022-10-18T16:28:10.910Z,20.32
2022-10-18T16:30:38.445Z,20.28
2022-10-18T16:33:07.385Z,20.21
2022-10-18T16:35:36.407Z,20.23
2022-10-18T16:38:03.884Z,20.19
2022-10-18T16:40:31.344Z,20.17
2022-10-18T16:42:58.804Z,20.16
2022-10-18T16:45:26.266Z,20.17
2022-10-18T16:47:53.716Z,20.12
2022-10-18T16:50:22.588Z,20.10
2022-10-18T16:52:51.394Z,20.10
2022-10-18T16:55:24.759Z,20.06
2022-10-18T16:57:52.281Z,20.05
2022-10-18T17:00:20.811Z,20.03
2022-10-18T17:02:48.778Z,19.95
2022-10-18T17:05:16.458Z,19.95
2022-10-18T17:07:44.031Z,19.59
2022-10-18T17:10:13.727Z,19.90
2022-10-18T17:12:41.251Z,19.77
2022-10-18T17:15:09.479Z,19.69
2022-10-18T17:17:37.082Z,19.56
2022-10-18T17:20:05.140Z,19.49
2022-10-18T17:22:32.585Z,19.82
2022-10-18T17:25:00.038Z,19.76
2022-10-18T17:27:28.792Z,19.76
2022-10-18T17:29:57.446Z,19.77
2022-10-18T17:32:24.920Z,19.74
2022-10-18T17:34:52.369Z,19.74
2022-10-18T17:37:19.805Z,19.70
2022-10-18T17:39:47.409Z,19.69
2022-10-18T17:42:14.864Z,19.67
2022-10-18T17:44:43.960Z,19.65
2022-10-18T17:47:11.422Z,19.63
2022-10-18T17:49:39.057Z,19.61
2022-10-18T17:52:07.164Z,19.60
2022-10-18T17:54:34.682Z,19.28
2022-10-18T17:57:02.121Z,19.55
2022-10-18T17:59:29.766Z,19.54
2022-10-18T18:01:58.590Z,19.51
2022-10-18T18:04:26.099Z,19.47
2022-10-18T18:06:53.941Z,19.45
2022-10-18T18:09:21.851Z,19.44
2022-10-18T18:11:50.253Z,19.44
2022-10-18T18:14:17.721Z,19.43
2022-10-18T18:16:46.377Z,19.40
2022-10-18T18:19:15.392Z,19.35
2022-10-18T18:21:43.370Z,19.36
2022-10-18T18:24:10.982Z,19.36
2022-10-18T18:26:38.999Z,19.34
2022-10-18T18:29:06.507Z,19.33
2022-10-18T18:31:38.697Z,19.31
2022-10-18T18:34:09.653Z,19.30
2022-10-18T18:36:38.481Z,19.30
2022-10-18T18:39:06.278Z,18.88
2022-10-18T18:41:33.797Z,19.27
2022-10-18T18:44:02.257Z,19.26
2022-10-18T18:46:32.842Z,19.25
2022-10-18T18:49:00.285Z,19.23
2022-10-18T18:51:27.722Z,19.22
2022-10-18T18:53:56.490Z,19.21
2022-10-18T18:56:24.943Z,19.19
2022-10-18T18:58:52.553Z,19.06
2022-10-18T19:01:20.925Z,18.81
2022-10-18T19:03:49.144Z,19.12
2022-10-18T19:06:17.830Z,19.11
2022-10-18T19:08:45.962Z,18.77
2022-10-18T19:11:15.953Z,19.11
2022-10-18T19:13:43.442Z,19.07
2022-10-18T19:16:19.907Z,18.89
2022-10-18T19:18:51.787Z,19.07
2022-10-18T19:21:19.294Z,19.08
2022-10-18T19:23:46.752Z,19.07
2022-10-18T19:26:22.683Z,19.03
2022-10-18T19:28:50.194Z,19.04
2022-10-18T19:31:17.723Z,19.00
2022-10-18T19:33:55.570Z,19.02
2022-10-18T19:36:26.388Z,19.01
2022-10-18T19:38:53.807Z,18.99
2022-10-18T19:41:23.570Z,18.98
2022-10-18T19:43:51.058Z,18.97
2022-10-18T19:46:18.509Z,18.94
2022-10-18T19:48:46.030Z,18.93
2022-10-18T19:51:17.297Z,18.93
2022-10-18T19:53:48.326Z,18.92
2022-10-18T19:56:18.390Z,18.91
2022-10-18T19:58:47.054Z,18.87
2022-10-18T20:01:14.708Z,18.85
2022-10-18T20:03:42.442Z,18.85
2022-10-18T20:06:09.910Z,18.83
2022-10-18T20:08:37.526Z,18.80
2022-10-18T20:11:06.050Z,18.48
2022-10-18T20:13:33.532Z,18.37
2022-10-18T20:16:02.443Z,18.78
2022-10-18T20:18:29.878Z,18.75
2022-10-18T20:20:57.359Z,18.30
2022-10-18T20:23:24.797Z,18.75
2022-10-18T20:25:59.124Z,18.74
2022-10-18T20:28:26.692Z,18.72
2022-10-18T20:31:03.207Z,18.70
2022-10-18T20:33:30.797Z,18.40
2022-10-18T20:36:02.674Z,18.63
2022-10-18T20:38:31.795Z,18.66
2022-10-18T20:41:03.424Z,18.64
2022-10-18T20:43:30.852Z,18.62
2022-10-18T20:45:58.528Z,18.10
2022-10-18T20:48:27.366Z,18.61
2022-10-18T20:50:54.921Z,18.61
2022-10-18T20:53:23.028Z,18.59
2022-10-18T20:55:50.577Z,18.28
2022-10-18T20:58:18.006Z,18.56
2022-10-18T21:00:45.498Z,18.54
2022-10-18T21:05:46.619Z,18.55
2022-10-18T21:08:15.674Z,18.54
2022-10-18T21:10:43.118Z,18.51
2022-10-18T21:13:10.580Z,18.50
2022-10-18T21:15:38.013Z,18.47
2022-10-18T21:18:05.449Z,18.47
2022-10-18T21:20:32.930Z,18.43
2022-10-18T21:23:01.694Z,18.42
2022-10-18T21:25:29.150Z,18.41
2022-10-18T21:27:56.606Z,18.41
2022-10-18T21:30:24.051Z,18.38
2022-10-18T21:32:52.443Z,18.34
2022-10-18T21:35:19.894Z,18.36
2022-10-18T21:37:47.327Z,18.31
2022-10-18T21:40:16.202Z,18.31
2022-10-18T21:42:43.644Z,18.29
2022-10-18T21:45:11.521Z,18.28
2022-10-18T21:47:38.966Z,18.30
2022-10-18T21:50:07.026Z,18.31
2022-10-18T21:52:34.738Z,18.28
2022-10-18T21:55:02.658Z,18.27
2022-10-18T21:57:31.488Z,18.26
2022-10-18T21:59:58.997Z,18.26
2022-10-18T22:02:26.478Z,18.23
2022-10-18T22:04:54.114Z,18.21
2022-10-18T22:07:21.674Z,18.22
2022-10-18T22:09:49.100Z,18.19
2022-10-18T22:12:16.519Z,18.14
2022-10-18T22:14:45.285Z,18.16
2022-10-18T22:17:12.706Z,18.14
2022-10-18T22:22:29.296Z,18.13
2022-10-18T22:24:56.755Z,18.02
2022-10-18T22:27:24.238Z,18.14
2022-10-18T22:29:53.369Z,18.13
2022-10-18T22:32:20.846Z,18.09
2022-10-18T22:34:48.276Z,18.06
2022-10-18T22:37:15.784Z,18.09
2022-10-18T22:39:43.243Z,18.09
2022-10-18T22:42:10.790Z,18.06
2022-10-18T22:44:38.238Z,18.00
2022-10-18T22:47:07.107Z,18.05
2022-10-18T22:49:34.626Z,18.01
2022-10-18T22:52:02.120Z,17.99
2022-10-18T22:54:29.618Z,17.98
2022-10-18T22:56:57.101Z,17.97
2022-10-18T22:59:24.676Z,17.96
2022-10-18T23:01:52.217Z,17.96
2022-10-18T23:04:21.073Z,17.95
2022-10-18T23:06:48.582Z,17.94
2022-10-18T23:09:16.075Z,17.95
2022-10-18T23:11:43.643Z,17.95
2022-10-18T23:14:11.343Z,17.93
2022-10-18T23:16:38.943Z,17.92
2022-10-18T23:19:06.482Z,17.82
2022-10-18T23:21:35.350Z,17.58
2022-10-18T23:24:03.322Z,17.90
2022-10-18T23:26:30.854Z,17.90
2022-10-18T23:28:58.360Z,17.90
2022-10-18T23:31:26.689Z,17.89
2022-10-18T23:33:55.145Z,17.87
2022-10-18T23:36:22.882Z,17.85
2022-10-18T23:38:51.675Z,17.83
2022-10-18T23:41:19.305Z,17.74
2022-10-18T23:43:46.833Z,17.60
2022-10-18T23:46:14.426Z,17.59
2022-10-18T23:48:41.887Z,17.86
2022-10-18T23:51:09.462Z,17.83
2022-10-18T23:53:36.917Z,17.83
2022-10-18T23:56:06.905Z,17.67
2022-10-18T23:58:34.749Z,17.80
